Time;durP1;ratioP1;P1;durP2;ratioP2;P2;SDS_P1;SDS_P2;PMS_P1;PMS_P2;Temp;Humidity;BMP_temperature;BMP_pressure;BME280_temperature;BME280_humidity;BME280_pressure;Samples;Min_cycle;Max_cycle;Signal;HPM_P1;HPM_P2
2022/06/06 00:01:40;;;;;;;6.18;5.35;;;;;;;;;;5084956;28;20239;-63
2022/06/06 00:04:07;;;;;;;6.65;5.55;;;;;;;;;;5082587;28;20206;-63
2022/06/06 00:06:35;;;;;;;6.13;5.63;;;;;;;;;;5090075;27;20204;-62
2022/06/06 00:09:03;;;;;;;5.38;4.97;;;;;;;;;;5077673;28;20204;-64
2022/06/06 00:11:34;;;;;;;7.18;5.18;;;;;;;;;;5074584;28;20220;-61
2022/06/06 00:14:03;;;;;;;6.40;5.47;;;;;;;;;;5080360;27;20246;-64
2022/06/06 00:16:31;;;;;;;7.83;5.47;;;;;;;;;;5092685;27;20246;-63
2022/06/06 00:18:58;;;;;;;7.10;5.35;;;;;;;;;;5076100;28;20212;-62
2022/06/06 00:21:25;;;;;;;7.60;5.30;;;;;;;;;;5076082;28;20286;-63
2022/06/06 00:23:54;;;;;;;5.45;4.97;;;;;;;;;;5076532;28;20250;-61
2022/06/06 00:26:21;;;;;;;9.07;5.82;;;;;;;;;;5078278;28;20279;-64
2022/06/06 00:28:49;;;;;;;9.35;6.00;;;;;;;;;;5070052;28;20208;-61
2022/06/06 00:36:49;;;;;;;6.67;5.50;;;;;;;;;;5087753;28;20201;-61
2022/06/06 00:39:17;;;;;;;5.85;5.30;;;;;;;;;;5064430;28;20674;-62
2022/06/06 00:41:46;;;;;;;5.47;4.97;;;;;;;;;;5071861;28;20223;-62
2022/06/06 00:44:15;;;;;;;5.27;4.77;;;;;;;;;;5084044;27;20207;-62
2022/06/06 00:46:45;;;;;;;6.10;4.93;;;;;;;;;;5065273;28;20207;-63
2022/06/06 00:49:15;;;;;;;4.90;4.50;;;;;;;;;;5075231;28;20296;-63
2022/06/06 00:51:44;;;;;;;4.60;4.20;;;;;;;;;;5071187;28;20231;-63
2022/06/06 00:54:11;;;;;;;5.10;4.70;;;;;;;;;;5076643;28;20683;-63
2022/06/06 00:56:48;;;;;;;4.67;4.37;;;;;;;;;;5092849;28;20196;-64
2022/06/06 00:59:19;;;;;;;6.80;4.83;;;;;;;;;;5081496;28;20232;-63
2022/06/06 01:01:49;;;;;;;4.70;4.20;;;;;;;;;;5068986;27;20322;-63
2022/06/06 01:04:18;;;;;;;5.37;4.80;;;;;;;;;;5071672;27;20289;-62
2022/06/06 01:06:46;;;;;;;5.57;4.70;;;;;;;;;;5076500;27;20208;-64
2022/06/06 01:09:15;;;;;;;5.40;4.87;;;;;;;;;;5071741;28;20348;-62
2022/06/06 01:11:50;;;;;;;5.35;4.85;;;;;;;;;;5076662;28;20219;-63
2022/06/06 01:14:19;;;;;;;5.07;4.63;;;;;;;;;;5080179;28;20617;-62
2022/06/06 01:16:50;;;;;;;5.27;4.87;;;;;;;;;;5079746;28;20200;-62
2022/06/06 01:19:24;;;;;;;5.20;4.80;;;;;;;;;;5074953;27;20560;-63
2022/06/06 01:21:57;;;;;;;5.10;4.70;;;;;;;;;;5084850;28;20672;-62
2022/06/06 01:24:32;;;;;;;7.30;5.07;;;;;;;;;;5086346;27;20207;-63
2022/06/06 01:27:00;;;;;;;10.23;5.03;;;;;;;;;;5073887;28;20211;-62
2022/06/06 01:29:28;;;;;;;7.03;4.83;;;;;;;;;;5068628;28;20208;-62
2022/06/06 01:31:58;;;;;;;6.33;5.03;;;;;;;;;;5065934;28;20784;-63
2022/06/06 01:34:28;;;;;;;6.03;4.60;;;;;;;;;;5068545;28;20205;-63
2022/06/06 01:36:56;;;;;;;4.63;4.33;;;;;;;;;;5065033;28;20247;-63
2022/06/06 01:39:26;;;;;;;6.97;5.00;;;;;;;;;;5081422;28;20219;-61
2022/06/06 01:42:12;;;;;;;4.93;4.57;;;;;;;;;;5079853;28;20631;-62
2022/06/06 01:44:39;;;;;;;5.67;5.17;;;;;;;;;;5079091;27;20208;-64
2022/06/06 01:47:08;;;;;;;5.50;5.00;;;;;;;;;;5083830;27;20218;-64
2022/06/06 01:49:36;;;;;;;5.27;4.77;;;;;;;;;;5072190;28;23396;-63
2022/06/06 01:52:07;;;;;;;6.93;5.33;;;;;;;;;;5095649;27;20227;-63
2022/06/06 01:54:34;;;;;;;5.60;5.10;;;;;;;;;;5076805;28;20196;-62
2022/06/06 01:57:03;;;;;;;6.13;5.37;;;;;;;;;;5080023;28;20291;-62
2022/06/06 01:59:31;;;;;;;5.63;5.17;;;;;;;;;;5078236;28;20260;-63
2022/06/06 02:01:58;;;;;;;5.00;4.60;;;;;;;;;;5072308;27;20220;-62
2022/06/06 02:04:25;;;;;;;5.93;5.43;;;;;;;;;;5075407;28;20211;-64
2022/06/06 02:06:53;;;;;;;5.70;5.00;;;;;;;;;;5075044;28;20775;-65
2022/06/06 02:09:21;;;;;;;5.23;4.83;;;;;;;;;;5063879;28;20207;-64
2022/06/06 02:11:48;;;;;;;5.10;4.60;;;;;;;;;;5076684;28;20216;-62
2022/06/06 02:14:16;;;;;;;5.10;4.70;;;;;;;;;;5076411;28;21933;-62
2022/06/06 02:16:43;;;;;;;5.30;4.80;;;;;;;;;;5068553;28;20208;-63
2022/06/06 02:19:11;;;;;;;6.37;4.80;;;;;;;;;;5088062;27;20216;-62
2022/06/06 02:21:38;;;;;;;6.63;4.80;;;;;;;;;;5091305;27;20251;-62
2022/06/06 02:24:06;;;;;;;5.17;4.67;;;;;;;;;;5072675;28;20253;-61
2022/06/06 02:26:34;;;;;;;5.50;4.90;;;;;;;;;;5075768;28;20208;-64
2022/06/06 02:29:01;;;;;;;6.80;4.90;;;;;;;;;;5066182;28;20212;-62
2022/06/06 02:31:29;;;;;;;6.07;4.50;;;;;;;;;;5072003;28;20281;-64
2022/06/06 02:34:08;;;;;;;5.23;4.80;;;;;;;;;;5073131;28;20223;-63
2022/06/06 02:36:36;;;;;;;5.00;4.60;;;;;;;;;;5073944;28;20208;-62
2022/06/06 02:39:10;;;;;;;7.63;4.70;;;;;;;;;;5085252;28;20648;-63
2022/06/06 02:41:37;;;;;;;5.23;4.73;;;;;;;;;;5087059;28;20220;-63
2022/06/06 02:44:05;;;;;;;5.30;4.80;;;;;;;;;;5078159;28;20205;-63
2022/06/06 02:46:33;;;;;;;5.40;4.70;;;;;;;;;;5070930;28;20291;-62
2022/06/06 02:49:00;;;;;;;5.13;4.73;;;;;;;;;;5063870;28;21353;-62
2022/06/06 02:51:28;;;;;;;5.50;5.00;;;;;;;;;;5088609;28;20232;-62
2022/06/06 02:53:55;;;;;;;5.83;5.27;;;;;;;;;;5072290;28;20227;-63
2022/06/06 02:56:22;;;;;;;5.60;5.20;;;;;;;;;;5073470;28;21111;-63
2022/06/06 02:58:50;;;;;;;7.53;5.20;;;;;;;;;;5063765;28;20211;-64
2022/06/06 03:01:18;;;;;;;5.23;4.83;;;;;;;;;;5083344;28;20223;-63
2022/06/06 03:03:45;;;;;;;6.23;5.63;;;;;;;;;;5067677;28;20216;-63
2022/06/06 03:06:13;;;;;;;5.77;5.30;;;;;;;;;;5069852;28;20211;-62
2022/06/06 03:08:59;;;;;;;8.67;5.23;;;;;;;;;;5065247;28;20205;-62
2022/06/06 03:11:45;;;;;;;5.90;5.30;;;;;;;;;;5067687;28;20638;-62
2022/06/06 03:14:37;;;;;;;5.50;5.00;;;;;;;;;;5073954;28;20311;-63
2022/06/06 03:23:25;;;;;;;4.93;4.50;;;;;;;;;;5086639;28;20622;-63
2022/06/06 03:25:56;;;;;;;7.87;4.60;;;;;;;;;;5076386;28;20746;-62
2022/06/06 03:28:24;;;;;;;4.87;4.37;;;;;;;;;;5077173;28;20208;-63
2022/06/06 03:30:55;;;;;;;5.30;4.33;;;;;;;;;;5081974;27;20228;-63
2022/06/06 03:33:22;;;;;;;5.43;4.63;;;;;;;;;;5099280;28;20231;-63
2022/06/06 03:36:02;;;;;;;4.87;4.47;;;;;;;;;;5071238;27;20212;-63
2022/06/06 03:38:42;;;;;;;4.73;4.33;;;;;;;;;;5076669;28;20599;-63
2022/06/06 03:41:23;;;;;;;5.03;4.53;;;;;;;;;;5080769;28;20216;-63
2022/06/06 03:44:03;;;;;;;4.87;4.10;;;;;;;;;;5079261;28;20215;-63
2022/06/06 03:46:37;;;;;;;5.97;4.80;;;;;;;;;;5081914;28;20214;-63
2022/06/06 03:49:11;;;;;;;5.57;4.60;;;;;;;;;;5070407;28;20694;-63
2022/06/06 03:51:42;;;;;;;4.63;4.17;;;;;;;;;;5090858;27;20220;-63
2022/06/06 03:54:19;;;;;;;5.03;4.53;;;;;;;;;;5093835;27;20232;-63
2022/06/06 03:56:46;;;;;;;4.90;4.50;;;;;;;;;;5077646;28;20196;-64
2022/06/06 03:59:14;;;;;;;4.20;3.90;;;;;;;;;;5076101;28;20250;-63
2022/06/06 04:01:42;;;;;;;6.07;4.33;;;;;;;;;;5087918;27;20239;-62
2022/06/06 04:04:10;;;;;;;4.73;4.33;;;;;;;;;;5072431;28;21214;-63
2022/06/06 04:06:37;;;;;;;4.90;4.50;;;;;;;;;;5094354;27;20288;-63
2022/06/06 04:09:11;;;;;;;4.77;4.37;;;;;;;;;;5078193;28;20207;-63
2022/06/06 04:11:45;;;;;;;4.53;4.20;;;;;;;;;;5072804;28;20232;-63
2022/06/06 04:14:45;;;;;;;5.00;4.40;;;;;;;;;;5073741;28;20224;-62
2022/06/06 04:17:15;;;;;;;5.10;4.70;;;;;;;;;;5035075;28;20196;-63
2022/06/06 04:19:53;;;;;;;5.47;5.07;;;;;;;;;;5075433;28;20212;-62
2022/06/06 04:22:20;;;;;;;5.23;4.43;;;;;;;;;;5090556;27;20224;-61
2022/06/06 04:24:50;;;;;;;5.10;4.60;;;;;;;;;;5068966;28;20212;-63
2022/06/06 04:27:27;;;;;;;5.40;5.00;;;;;;;;;;5088242;27;20201;-62
2022/06/06 04:29:58;;;;;;;5.10;4.60;;;;;;;;;;5095874;27;20725;-63
2022/06/06 04:32:26;;;;;;;5.73;4.80;;;;;;;;;;5084262;28;20232;-62
2022/06/06 04:35:16;;;;;;;5.07;4.57;;;;;;;;;;5078988;28;20220;-62
2022/06/06 04:38:04;;;;;;;6.00;4.63;;;;;;;;;;5037293;28;20216;-62
2022/06/06 04:40:43;;;;;;;5.30;4.80;;;;;;;;;;5074540;27;20228;-62
2022/06/06 04:43:15;;;;;;;4.77;4.27;;;;;;;;;;5090577;28;20219;-62
2022/06/06 04:45:52;;;;;;;5.30;4.80;;;;;;;;;;5080808;27;20208;-63
2022/06/06 04:48:20;;;;;;;5.03;4.03;;;;;;;;;;5079640;28;20283;-63
2022/06/06 04:50:55;;;;;;;8.10;4.47;;;;;;;;;;5069305;28;20264;-63
2022/06/06 04:53:24;;;;;;;4.82;4.35;;;;;;;;;;5076336;28;20716;-63
2022/06/06 04:55:52;;;;;;;4.57;4.17;;;;;;;;;;5072566;28;20212;-63
2022/06/06 04:58:21;;;;;;;4.27;3.87;;;;;;;;;;5093741;27;20260;-63
2022/06/06 05:00:48;;;;;;;4.97;4.47;;;;;;;;;;5072006;28;20224;-63
2022/06/06 05:03:16;;;;;;;4.82;4.30;;;;;;;;;;5089487;28;20211;-63
2022/06/06 05:05:43;;;;;;;4.35;4.05;;;;;;;;;;5093069;28;20592;-63
2022/06/06 05:08:26;;;;;;;4.78;4.38;;;;;;;;;;5080249;27;20235;-64
2022/06/06 05:11:06;;;;;;;5.43;4.22;;;;;;;;;;5074236;28;20224;-64
2022/06/06 05:13:37;;;;;;;4.80;4.25;;;;;;;;;;5079559;28;20242;-63
2022/06/06 05:16:28;;;;;;;4.75;4.32;;;;;;;;;;5087390;27;20200;-64
2022/06/06 05:18:55;;;;;;;4.70;4.30;;;;;;;;;;5065735;28;20208;-64
2022/06/06 05:21:42;;;;;;;4.43;4.13;;;;;;;;;;5091580;27;20220;-63
2022/06/06 05:24:20;;;;;;;4.70;4.13;;;;;;;;;;5090732;27;20272;-64
2022/06/06 05:27:00;;;;;;;3.63;3.33;;;;;;;;;;5092955;27;20214;-63
2022/06/06 05:29:44;;;;;;;3.63;2.80;;;;;;;;;;5092397;28;20207;-64
2022/06/06 05:32:11;;;;;;;2.80;2.20;;;;;;;;;;5091328;28;20730;-63
2022/06/06 05:34:44;;;;;;;2.47;2.28;;;;;;;;;;5085323;27;20200;-62
2022/06/06 05:37:15;;;;;;;2.65;2.45;;;;;;;;;;5072199;28;20204;-62
2022/06/06 05:39:53;;;;;;;2.50;2.30;;;;;;;;;;5066777;28;20189;-62
2022/06/06 05:42:31;;;;;;;2.35;2.25;;;;;;;;;;5090827;28;20280;-63
2022/06/06 05:45:01;;;;;;;2.20;1.80;;;;;;;;;;5075684;28;20265;-63
2022/06/06 05:47:36;;;;;;;3.55;1.92;;;;;;;;;;5073647;28;20224;-62
2022/06/06 05:50:30;;;;;;;2.20;2.10;;;;;;;;;;5077792;28;20634;-63
2022/06/06 05:53:03;;;;;;;2.25;1.88;;;;;;;;;;5053294;28;20204;-62
2022/06/06 05:55:46;;;;;;;2.22;2.03;;;;;;;;;;5067774;28;21052;-62
2022/06/06 05:58:33;;;;;;;4.13;1.85;;;;;;;;;;5079966;28;20201;-62
2022/06/06 06:01:00;;;;;;;2.20;2.00;;;;;;;;;;5076405;28;20223;-64
2022/06/06 06:03:57;;;;;;;4.43;1.95;;;;;;;;;;5073369;28;20582;-63
2022/06/06 06:06:29;;;;;;;2.60;2.40;;;;;;;;;;5019955;28;20212;-63
2022/06/06 06:09:16;;;;;;;2.35;2.13;;;;;;;;;;5075189;28;20200;-62
2022/06/06 06:12:04;;;;;;;2.13;2.03;;;;;;;;;;5076003;28;20232;-64
2022/06/06 06:14:34;;;;;;;3.08;2.00;;;;;;;;;;5092190;28;20235;-65
2022/06/06 06:17:03;;;;;;;2.50;2.30;;;;;;;;;;5083102;28;20566;-63
2022/06/06 06:19:35;;;;;;;3.70;2.38;;;;;;;;;;5065415;28;20211;-63
2022/06/06 06:22:03;;;;;;;4.03;2.67;;;;;;;;;;5090826;27;20708;-62
2022/06/06 06:24:32;;;;;;;3.65;3.13;;;;;;;;;;5092582;28;20291;-64
2022/06/06 06:27:02;;;;;;;4.28;3.35;;;;;;;;;;5081298;27;20212;-63
2022/06/06 06:29:30;;;;;;;3.63;3.00;;;;;;;;;;5076640;28;20247;-65
2022/06/06 06:32:07;;;;;;;5.25;3.20;;;;;;;;;;5069389;28;20229;-63
2022/06/06 06:34:34;;;;;;;3.42;3.15;;;;;;;;;;5075894;28;20577;-64
2022/06/06 06:37:14;;;;;;;4.15;3.33;;;;;;;;;;5080174;28;20204;-66
2022/06/06 06:39:54;;;;;;;3.60;3.30;;;;;;;;;;5084474;28;20204;-64
2022/06/06 06:42:40;;;;;;;4.07;3.40;;;;;;;;;;5088908;28;20314;-65
2022/06/06 06:45:12;;;;;;;10.00;6.70;;;;;;;;;;5075670;28;20213;-64
2022/06/06 06:47:39;;;;;;;5.57;4.18;;;;;;;;;;5080447;28;20257;-63
2022/06/06 06:50:25;;;;;;;4.50;4.10;;;;;;;;;;5074721;28;20239;-64
2022/06/06 06:52:52;;;;;;;5.30;3.63;;;;;;;;;;5087576;28;20307;-63
2022/06/06 06:55:28;;;;;;;4.65;3.95;;;;;;;;;;5078724;28;20313;-63
2022/06/06 06:58:11;;;;;;;5.85;4.20;;;;;;;;;;5074547;28;20207;-64
2022/06/06 07:00:50;;;;;;;4.28;3.97;;;;;;;;;;5092456;28;20227;-63
2022/06/06 07:09:19;;;;;;;4.25;3.45;;;;;;;;;;5092837;28;20204;-63
2022/06/06 07:11:52;;;;;;;3.78;3.47;;;;;;;;;;5073617;28;20220;-64
2022/06/06 07:14:23;;;;;;;3.97;3.60;;;;;;;;;;5089148;28;20229;-63
2022/06/06 07:16:55;;;;;;;3.75;3.40;;;;;;;;;;5092524;28;20216;-64
2022/06/06 07:19:43;;;;;;;5.22;3.42;;;;;;;;;;5075556;28;20211;-65
2022/06/06 07:22:11;;;;;;;4.18;3.80;;;;;;;;;;5078901;28;20220;-66
2022/06/06 07:24:42;;;;;;;8.30;6.53;;;;;;;;;;5097272;28;20212;-64
2022/06/06 07:27:10;;;;;;;3.90;3.50;;;;;;;;;;5078389;28;20200;-64
2022/06/06 07:29:38;;;;;;;3.60;3.30;;;;;;;;;;5078954;28;20212;-64
2022/06/06 07:32:06;;;;;;;5.95;3.88;;;;;;;;;;5071193;28;20228;-66
2022/06/06 07:34:33;;;;;;;9.63;3.88;;;;;;;;;;5087265;28;20232;-64
2022/06/06 07:37:05;;;;;;;3.92;3.45;;;;;;;;;;5078235;28;20804;-63
2022/06/06 07:39:52;;;;;;;5.15;3.60;;;;;;;;;;5076905;28;20661;-64
2022/06/06 07:42:40;;;;;;;3.53;3.22;;;;;;;;;;5082525;28;20295;-64
2022/06/06 07:45:19;;;;;;;3.78;3.47;;;;;;;;;;5027127;28;20690;-65
2022/06/06 07:48:16;;;;;;;4.28;3.63;;;;;;;;;;5087293;28;20216;-63
2022/06/06 07:50:44;;;;;;;3.30;3.00;;;;;;;;;;5065335;28;20235;-65
2022/06/06 07:53:15;;;;;;;3.97;2.60;;;;;;;;;;5080058;28;20364;-62
2022/06/06 07:56:01;;;;;;;2.40;2.20;;;;;;;;;;5075781;28;20705;-64
2022/06/06 07:58:53;;;;;;;2.65;2.40;;;;;;;;;;5077236;28;20790;-65
2022/06/06 08:01:40;;;;;;;6.05;2.97;;;;;;;;;;5052148;28;20296;-65
2022/06/06 08:04:12;;;;;;;3.55;2.50;;;;;;;;;;5083241;28;20498;-64
2022/06/06 08:06:43;;;;;;;5.18;2.95;;;;;;;;;;5075906;28;20205;-64
2022/06/06 08:09:30;;;;;;;4.43;3.75;;;;;;;;;;5066152;27;20204;-66
2022/06/06 08:12:16;;;;;;;2.90;2.70;;;;;;;;;;5065524;28;20289;-63
2022/06/06 08:14:56;;;;;;;3.03;2.75;;;;;;;;;;5074216;28;20244;-64
2022/06/06 08:17:27;;;;;;;4.05;2.70;;;;;;;;;;5065790;28;20203;-66
2022/06/06 08:20:13;;;;;;;6.28;2.85;;;;;;;;;;5089181;27;20227;-63
2022/06/06 08:22:42;;;;;;;5.50;2.60;;;;;;;;;;5076528;27;20196;-65
2022/06/06 08:25:12;;;;;;;3.67;2.92;;;;;;;;;;5074543;28;21082;-65
2022/06/06 08:27:45;;;;;;;2.85;2.65;;;;;;;;;;5084070;27;20219;-66
2022/06/06 08:30:14;;;;;;;4.97;2.70;;;;;;;;;;5077985;28;20208;-66
2022/06/06 08:32:45;;;;;;;3.78;2.55;;;;;;;;;;5074893;28;20277;-66
2022/06/06 08:35:12;;;;;;;3.03;2.55;;;;;;;;;;5073339;28;20232;-64
2022/06/06 08:37:50;;;;;;;4.10;2.60;;;;;;;;;;5072563;28;20219;-63
2022/06/06 08:40:44;;;;;;;3.35;2.70;;;;;;;;;;5078768;28;20239;-64
2022/06/06 08:43:15;;;;;;;3.40;2.35;;;;;;;;;;5064042;28;20580;-65
2022/06/06 08:45:49;;;;;;;2.88;2.50;;;;;;;;;;5090491;28;20216;-66
2022/06/06 08:48:28;;;;;;;3.33;2.40;;;;;;;;;;5090073;27;20222;-65
2022/06/06 08:51:14;;;;;;;2.72;2.50;;;;;;;;;;5094591;28;20224;-66
2022/06/06 08:54:00;;;;;;;2.78;2.58;;;;;;;;;;5077893;27;20223;-64
2022/06/06 08:56:44;;;;;;;2.92;2.53;;;;;;;;;;5081505;28;20204;-64
2022/06/06 08:59:30;;;;;;;2.70;2.50;;;;;;;;;;5076010;28;20826;-66
2022/06/06 09:02:10;;;;;;;2.83;2.63;;;;;;;;;;5094490;27;20228;-65
2022/06/06 09:04:44;;;;;;;2.80;2.55;;;;;;;;;;5089928;27;20205;-67
2022/06/06 09:07:29;;;;;;;2.38;2.17;;;;;;;;;;5096076;28;20272;-65
2022/06/06 09:10:15;;;;;;;3.40;2.38;;;;;;;;;;5087158;27;20216;-64
2022/06/06 09:12:43;;;;;;;2.53;2.33;;;;;;;;;;5079484;28;20207;-65
2022/06/06 09:15:11;;;;;;;3.53;2.35;;;;;;;;;;5074385;28;20785;-64
2022/06/06 09:17:57;;;;;;;2.80;2.38;;;;;;;;;;5074180;28;20737;-66
2022/06/06 09:20:44;;;;;;;4.00;2.70;;;;;;;;;;5078742;28;20207;-64
2022/06/06 09:23:36;;;;;;;2.70;2.42;;;;;;;;;;5086308;28;21077;-64
2022/06/06 09:26:19;;;;;;;3.03;2.15;;;;;;;;;;5072803;28;20212;-66
2022/06/06 09:28:46;;;;;;;4.38;2.45;;;;;;;;;;5071791;27;20553;-66
2022/06/06 09:31:14;;;;;;;2.60;2.40;;;;;;;;;;5077219;28;20227;-66
2022/06/06 09:33:42;;;;;;;2.42;2.33;;;;;;;;;;5089649;27;20634;-65
2022/06/06 09:36:09;;;;;;;3.65;2.33;;;;;;;;;;5073500;28;20639;-66
2022/06/06 09:38:56;;;;;;;7.75;2.17;;;;;;;;;;5074036;28;20261;-67
2022/06/06 09:41:42;;;;;;;2.88;2.20;;;;;;;;;;5069646;27;20722;-65
2022/06/06 09:44:09;;;;;;;4.43;2.10;;;;;;;;;;5074624;28;20204;-67
2022/06/06 09:46:56;;;;;;;3.20;1.80;;;;;;;;;;5075612;28;20197;-67
2022/06/06 09:49:32;;;;;;;3.05;2.10;;;;;;;;;;5074185;28;20300;-66
2022/06/06 09:52:19;;;;;;;2.35;2.10;;;;;;;;;;5089158;27;20512;-64
2022/06/06 10:00:45;;;;;;;2.28;1.88;;;;;;;;;;5092583;27;20234;-64
2022/06/06 10:03:16;;;;;;;2.30;2.10;;;;;;;;;;5070078;28;20320;-64
2022/06/06 10:06:04;;;;;;;2.65;1.83;;;;;;;;;;5074186;28;23097;-65
2022/06/06 10:08:31;;;;;;;2.65;1.90;;;;;;;;;;5071104;28;20335;-64
2022/06/06 10:11:08;;;;;;;1.90;1.70;;;;;;;;;;5088873;28;20267;-63
2022/06/06 10:13:54;;;;;;;2.60;2.00;;;;;;;;;;5079811;28;20227;-63
2022/06/06 10:16:22;;;;;;;2.92;1.95;;;;;;;;;;5082829;28;20231;-64
2022/06/06 10:19:15;;;;;;;2.15;1.80;;;;;;;;;;5080146;28;20204;-63
2022/06/06 10:21:49;;;;;;;2.28;2.17;;;;;;;;;;5073756;28;20228;-64
2022/06/06 10:24:43;;;;;;;2.30;2.10;;;;;;;;;;5074254;28;20369;-65
2022/06/06 10:27:16;;;;;;;3.40;2.47;;;;;;;;;;5092320;28;20208;-66
2022/06/06 10:32:52;;;;;;;2.42;2.22;;;;;;;;;;5098170;28;20223;-65
2022/06/06 10:35:24;;;;;;;3.58;2.35;;;;;;;;;;5077732;28;20236;-67
2022/06/06 10:38:01;;;;;;;4.30;1.75;;;;;;;;;;5079107;28;20209;-66
2022/06/06 10:40:38;;;;;;;3.15;2.20;;;;;;;;;;5079479;28;20257;-64
2022/06/06 10:43:21;;;;;;;1.95;1.85;;;;;;;;;;5091169;27;20258;-63
2022/06/06 10:45:54;;;;;;;3.17;1.90;;;;;;;;;;5091121;28;20219;-66
2022/06/06 10:48:21;;;;;;;2.08;1.70;;;;;;;;;;5074893;28;21137;-66
2022/06/06 10:54:04;;;;;;;3.72;1.95;;;;;;;;;;5091626;28;20204;-64
2022/06/06 10:56:50;;;;;;;1.60;1.50;;;;;;;;;;5088516;28;20665;-65
2022/06/06 10:59:40;;;;;;;2.45;1.80;;;;;;;;;;5086996;28;20219;-64
2022/06/06 11:02:21;;;;;;;1.65;1.55;;;;;;;;;;5080369;28;20658;-67
2022/06/06 11:04:49;;;;;;;3.80;1.90;;;;;;;;;;5069479;28;20211;-67
2022/06/06 11:07:22;;;;;;;3.10;1.75;;;;;;;;;;5062980;28;20208;-66
2022/06/06 11:10:04;;;;;;;2.13;1.80;;;;;;;;;;5056683;28;20212;-66
2022/06/06 11:12:46;;;;;;;2.60;1.85;;;;;;;;;;5086864;28;20920;-64
2022/06/06 11:15:13;;;;;;;1.90;1.70;;;;;;;;;;5070594;28;20228;-63
2022/06/06 11:17:56;;;;;;;2.03;1.63;;;;;;;;;;5094860;28;20204;-65
2022/06/06 11:20:42;;;;;;;3.22;2.00;;;;;;;;;;5073447;28;20241;-63
2022/06/06 11:23:45;;;;;;;2.35;1.98;;;;;;;;;;5086244;28;22006;-65
2022/06/06 11:26:22;;;;;;;2.38;2.00;;;;;;;;;;5078056;28;20219;-68
2022/06/06 11:29:10;;;;;;;2.40;2.10;;;;;;;;;;5064611;28;20215;-65
2022/06/06 11:31:56;;;;;;;3.33;2.17;;;;;;;;;;5073839;28;20216;-65
2022/06/06 11:34:37;;;;;;;1.95;1.73;;;;;;;;;;5073350;28;21583;-67
2022/06/06 11:37:20;;;;;;;2.25;2.00;;;;;;;;;;5077558;28;20204;-64
2022/06/06 11:40:04;;;;;;;2.00;1.90;;;;;;;;;;5069783;28;20200;-65
2022/06/06 11:42:41;;;;;;;3.50;2.28;;;;;;;;;;5076117;28;20600;-67
2022/06/06 11:45:16;;;;;;;1.88;1.77;;;;;;;;;;5095488;27;20208;-67
2022/06/06 11:47:46;;;;;;;1.73;1.63;;;;;;;;;;5084299;28;20354;-66
2022/06/06 11:50:29;;;;;;;2.53;1.60;;;;;;;;;;5074659;28;21497;-64
2022/06/06 11:53:03;;;;;;;1.75;1.65;;;;;;;;;;5067684;28;20238;-68
2022/06/06 11:55:41;;;;;;;2.78;2.00;;;;;;;;;;5089690;28;20223;-65
2022/06/06 11:58:11;;;;;;;2.08;1.85;;;;;;;;;;5093025;27;20254;-65
2022/06/06 12:00:41;;;;;;;2.97;1.73;;;;;;;;;;5076051;28;20227;-64
2022/06/06 12:03:27;;;;;;;3.33;1.70;;;;;;;;;;5074890;28;20662;-65
2022/06/06 12:06:09;;;;;;;2.15;1.83;;;;;;;;;;5085412;28;20208;-65
2022/06/06 12:08:37;;;;;;;1.80;1.70;;;;;;;;;;5068657;28;20744;-65
2022/06/06 12:11:07;;;;;;;3.47;1.75;;;;;;;;;;5072464;28;20605;-67
2022/06/06 12:13:54;;;;;;;2.20;1.58;;;;;;;;;;5083662;28;20258;-64
2022/06/06 12:16:33;;;;;;;1.90;1.80;;;;;;;;;;5089511;28;20231;-62
2022/06/06 12:19:04;;;;;;;2.20;2.00;;;;;;;;;;5093561;27;20200;-68
2022/06/06 12:21:50;;;;;;;1.77;1.67;;;;;;;;;;5075227;28;20236;-67
2022/06/06 12:24:29;;;;;;;2.90;1.80;;;;;;;;;;5079849;28;20207;-65
2022/06/06 12:26:59;;;;;;;3.35;1.55;;;;;;;;;;5075654;28;20224;-64
2022/06/06 12:29:42;;;;;;;4.15;1.80;;;;;;;;;;5069177;28;20757;-65
2022/06/06 12:32:28;;;;;;;1.88;1.70;;;;;;;;;;5083586;28;20640;-67
2022/06/06 12:35:05;;;;;;;2.00;1.83;;;;;;;;;;5084860;27;20758;-64
2022/06/06 12:37:32;;;;;;;2.08;1.85;;;;;;;;;;5080655;28;20730;-64
2022/06/06 12:40:10;;;;;;;1.83;1.70;;;;;;;;;;5097347;27;20669;-66
2022/06/06 12:42:51;;;;;;;2.20;1.58;;;;;;;;;;5079774;28;21916;-65
2022/06/06 12:45:21;;;;;;;1.77;1.65;;;;;;;;;;5069758;28;20245;-63
2022/06/06 12:47:56;;;;;;;2.13;1.77;;;;;;;;;;5075688;28;20197;-63
2022/06/06 12:50:28;;;;;;;2.15;1.70;;;;;;;;;;5082899;28;20219;-64
2022/06/06 12:53:13;;;;;;;1.70;1.60;;;;;;;;;;5098985;28;20215;-64
2022/06/06 12:56:17;;;;;;;1.73;1.63;;;;;;;;;;5089859;27;20228;-64
2022/06/06 12:58:46;;;;;;;2.17;1.77;;;;;;;;;;5086985;27;20661;-64
2022/06/06 13:01:38;;;;;;;2.30;1.40;;;;;;;;;;5067289;27;20273;-64
2022/06/06 13:04:23;;;;;;;1.80;1.70;;;;;;;;;;5088956;27;20616;-62
2022/06/06 13:07:30;;;;;;;2.38;1.30;;;;;;;;;;5089151;27;20228;-66
2022/06/06 13:10:16;;;;;;;2.95;1.80;;;;;;;;;;4994154;28;20203;-62
2022/06/06 13:12:56;;;;;;;1.55;1.45;;;;;;;;;;4980654;28;20855;-63
2022/06/06 13:15:39;;;;;;;1.60;1.50;;;;;;;;;;5056800;27;20275;-64
2022/06/06 13:18:16;;;;;;;1.77;1.40;;;;;;;;;;5074408;27;20203;-64
2022/06/06 13:20:43;;;;;;;1.40;1.30;;;;;;;;;;5062829;28;20216;-64
2022/06/06 13:23:11;;;;;;;2.22;1.45;;;;;;;;;;5092661;27;20631;-65
2022/06/06 13:25:48;;;;;;;1.40;1.40;;;;;;;;;;5084895;27;20259;-64
2022/06/06 13:28:26;;;;;;;2.03;1.45;;;;;;;;;;5082750;28;20253;-64
2022/06/06 13:30:54;;;;;;;1.50;1.35;;;;;;;;;;5066068;28;20859;-64
2022/06/06 13:33:21;;;;;;;4.90;1.52;;;;;;;;;;5067967;28;20257;-65
2022/06/06 13:35:55;;;;;;;2.53;1.40;;;;;;;;;;5059464;28;22234;-64
2022/06/06 13:38:26;;;;;;;1.88;1.27;;;;;;;;;;5062872;28;20192;-63
2022/06/06 13:41:12;;;;;;;2.15;1.33;;;;;;;;;;5086728;28;20220;-64
2022/06/06 13:43:55;;;;;;;2.80;1.40;;;;;;;;;;5089360;28;20658;-62
2022/06/06 13:46:41;;;;;;;1.92;1.58;;;;;;;;;;5073596;28;20207;-65
2022/06/06 13:49:30;;;;;;;1.50;1.40;;;;;;;;;;5076060;28;20196;-64
2022/06/06 13:52:07;;;;;;;1.40;1.30;;;;;;;;;;5060743;28;20227;-64
2022/06/06 13:54:37;;;;;;;2.25;1.50;;;;;;;;;;5076410;28;20582;-65
2022/06/06 13:57:18;;;;;;;1.92;1.80;;;;;;;;;;5063534;28;21378;-65
2022/06/06 13:59:58;;;;;;;1.40;1.30;;;;;;;;;;5076768;28;20209;-64
2022/06/06 14:02:32;;;;;;;1.73;1.35;;;;;;;;;;5060037;28;20251;-65
2022/06/06 14:05:13;;;;;;;1.40;1.30;;;;;;;;;;5092939;28;20216;-64
2022/06/06 14:08:04;;;;;;;2.65;1.52;;;;;;;;;;5075513;28;20832;-66
2022/06/06 14:10:38;;;;;;;1.70;1.60;;;;;;;;;;5075379;28;20205;-64
2022/06/06 14:13:24;;;;;;;3.08;1.35;;;;;;;;;;5072609;28;20200;-64
2022/06/06 14:16:35;;;;;;;2.60;1.60;;;;;;;;;;5063632;28;20314;-63
2022/06/06 14:19:16;;;;;;;1.83;1.58;;;;;;;;;;5082906;28;20203;-63
2022/06/06 14:21:50;;;;;;;2.10;1.60;;;;;;;;;;5072518;28;20233;-63
2022/06/06 14:24:19;;;;;;;1.75;1.65;;;;;;;;;;5086870;28;20369;-63
2022/06/06 14:26:52;;;;;;;2.50;1.80;;;;;;;;;;5031867;28;1323303;-64
2022/06/06 14:29:28;;;;;;;2.85;1.60;;;;;;;;;;5081262;28;20453;-63
2022/06/06 14:32:26;;;;;;;1.73;1.58;;;;;;;;;;5069530;28;20227;-63
2022/06/06 14:34:56;;;;;;;3.08;1.50;;;;;;;;;;5057471;27;20223;-64
2022/06/06 14:37:32;;;;;;;1.73;1.52;;;;;;;;;;5081584;28;20228;-63
2022/06/06 14:40:01;;;;;;;2.92;2.60;;;;;;;;;;5065606;28;20288;-63
2022/06/06 14:42:31;;;;;;;2.42;2.22;;;;;;;;;;5088690;28;20323;-63
2022/06/06 14:45:10;;;;;;;3.90;1.65;;;;;;;;;;5077150;28;20212;-63
2022/06/06 14:47:50;;;;;;;2.17;1.70;;;;;;;;;;5082318;28;20196;-62
2022/06/06 14:53:26;;;;;;;1.85;1.75;;;;;;;;;;5086260;28;20208;-63
2022/06/06 14:55:56;;;;;;;1.70;1.55;;;;;;;;;;5059226;28;20833;-62
2022/06/06 14:58:26;;;;;;;2.60;1.60;;;;;;;;;;5055679;28;20208;-63
2022/06/06 15:00:58;;;;;;;3.22;2.92;;;;;;;;;;5080657;27;20701;-64
2022/06/06 15:03:34;;;;;;;2.45;2.22;;;;;;;;;;5059375;28;20212;-64
2022/06/06 15:06:12;;;;;;;2.42;1.73;;;;;;;;;;5069117;28;20574;-64
2022/06/06 15:09:08;;;;;;;3.22;2.13;;;;;;;;;;5083378;28;20231;-65
2022/06/06 15:11:36;;;;;;;3.20;1.90;;;;;;;;;;5085557;28;20219;-64
2022/06/06 15:14:07;;;;;;;2.05;1.50;;;;;;;;;;5067025;28;20212;-63
2022/06/06 15:16:36;;;;;;;2.05;1.80;;;;;;;;;;5092731;28;20763;-64
2022/06/06 15:19:05;;;;;;;4.78;1.98;;;;;;;;;;5085483;28;20622;-64
2022/06/06 15:21:41;;;;;;;1.65;1.55;;;;;;;;;;5096403;27;20230;-64
2022/06/06 15:24:30;;;;;;;1.95;1.63;;;;;;;;;;5082707;28;20579;-65
2022/06/06 15:27:18;;;;;;;2.10;1.75;;;;;;;;;;5088976;28;20200;-64
2022/06/06 15:29:45;;;;;;;3.42;1.85;;;;;;;;;;5100950;28;20625;-64
2022/06/06 15:32:19;;;;;;;1.85;1.73;;;;;;;;;;5084147;28;20574;-64
2022/06/06 15:35:08;;;;;;;2.58;1.92;;;;;;;;;;5097453;28;20200;-64
2022/06/06 15:37:48;;;;;;;3.25;1.90;;;;;;;;;;5037105;28;20224;-65
2022/06/06 15:40:51;;;;;;;3.35;1.83;;;;;;;;;;5086066;28;20203;-64
2022/06/06 15:43:25;;;;;;;3.33;2.00;;;;;;;;;;5004466;28;20711;-64
2022/06/06 15:46:05;;;;;;;6.80;2.08;;;;;;;;;;5068802;28;20212;-64
2022/06/06 15:48:43;;;;;;;3.10;2.00;;;;;;;;;;5081400;28;20204;-64
2022/06/06 15:51:13;;;;;;;2.58;2.38;;;;;;;;;;5081186;28;20219;-64
2022/06/06 15:53:41;;;;;;;3.40;3.08;;;;;;;;;;5075106;28;20203;-65
2022/06/06 15:56:19;;;;;;;2.72;2.53;;;;;;;;;;5096782;27;20224;-64
2022/06/06 15:58:46;;;;;;;2.03;1.92;;;;;;;;;;5097516;28;20204;-64
2022/06/06 16:01:34;;;;;;;3.03;2.50;;;;;;;;;;5101822;28;20299;-64
2022/06/06 16:04:13;;;;;;;2.42;1.90;;;;;;;;;;5083492;28;20239;-65
2022/06/06 16:06:42;;;;;;;3.17;2.00;;;;;;;;;;5078625;28;20208;-64